sensor_id;sensor_type;location;lat;lon;timestamp;pressure;altitude;pressure_sealevel;temperature;humidity
50518;BME280;37075;44.084;2.962;2024-03-17T00:01:20;98398.22;;;7.93;58.51
50518;BME280;37075;44.084;2.962;2024-03-17T00:04:07;98398.03;;;7.89;58.44
50518;BME280;37075;44.084;2.962;2024-03-17T00:06:53;98397.00;;;7.85;58.49
50518;BME280;37075;44.084;2.962;2024-03-17T00:09:40;98394.09;;;7.82;58.67
50518;BME280;37075;44.084;2.962;2024-03-17T00:12:26;98385.19;;;7.76;58.86
50518;BME280;37075;44.084;2.962;2024-03-17T00:15:13;98385.00;;;7.72;59.00
50518;BME280;37075;44.084;2.962;2024-03-17T00:17:59;98389.41;;;7.68;59.21
50518;BME280;37075;44.084;2.962;2024-03-17T00:20:45;98389.22;;;7.65;59.59
50518;BME280;37075;44.084;2.962;2024-03-17T00:23:30;98385.19;;;7.62;59.73
50518;BME280;37075;44.084;2.962;2024-03-17T00:26:17;98385.50;;;7.61;59.71
50518;BME280;37075;44.084;2.962;2024-03-17T00:29:05;98391.50;;;7.58;59.87
50518;BME280;37075;44.084;2.962;2024-03-17T00:31:51;98380.97;;;7.56;59.83
50518;BME280;37075;44.084;2.962;2024-03-17T00:34:37;98380.72;;;7.53;59.60
50518;BME280;37075;44.084;2.962;2024-03-17T00:37:23;98377.50;;;7.51;59.66
50518;BME280;37075;44.084;2.962;2024-03-17T00:40:09;98364.81;;;7.46;59.89
50518;BME280;37075;44.084;2.962;2024-03-17T00:42:56;98370.84;;;7.43;59.71
50518;BME280;37075;44.084;2.962;2024-03-17T00:45:43;98371.44;;;7.40;59.55
50518;BME280;37075;44.084;2.962;2024-03-17T00:48:29;98362.00;;;7.37;59.63
50518;BME280;37075;44.084;2.962;2024-03-17T00:51:16;98362.88;;;7.33;59.61
50518;BME280;37075;44.084;2.962;2024-03-17T00:54:01;98352.63;;;7.30;59.66
50518;BME280;37075;44.084;2.962;2024-03-17T00:56:47;98343.16;;;7.27;59.67
50518;BME280;37075;44.084;2.962;2024-03-17T00:59:33;98346.75;;;7.23;59.82
50518;BME280;37075;44.084;2.962;2024-03-17T01:02:21;98332.19;;;7.19;60.07
50518;BME280;37075;44.084;2.962;2024-03-17T01:05:07;98330.84;;;7.16;60.11
50518;BME280;37075;44.084;2.962;2024-03-17T01:07:53;98331.97;;;7.15;60.22
50518;BME280;37075;44.084;2.962;2024-03-17T01:10:39;98325.22;;;7.13;60.31
50518;BME280;37075;44.084;2.962;2024-03-17T01:13:26;98335.28;;;7.12;60.46
50518;BME280;37075;44.084;2.962;2024-03-17T01:16:12;98339.09;;;7.11;60.52
50518;BME280;37075;44.084;2.962;2024-03-17T01:18:59;98325.81;;;7.09;60.56
50518;BME280;37075;44.084;2.962;2024-03-17T01:21:45;98322.81;;;7.11;60.72
50518;BME280;37075;44.084;2.962;2024-03-17T01:24:30;98324.72;;;7.10;60.79
50518;BME280;37075;44.084;2.962;2024-03-17T01:27:18;98309.53;;;7.09;60.73
50518;BME280;37075;44.084;2.962;2024-03-17T01:30:04;98307.63;;;7.10;60.89
50518;BME280;37075;44.084;2.962;2024-03-17T01:32:51;98307.63;;;7.10;60.68
50518;BME280;37075;44.084;2.962;2024-03-17T01:35:38;98306.03;;;7.09;60.96
50518;BME280;37075;44.084;2.962;2024-03-17T01:38:24;98310.66;;;7.08;61.12
50518;BME280;37075;44.084;2.962;2024-03-17T01:41:09;98306.94;;;7.04;61.19
50518;BME280;37075;44.084;2.962;2024-03-17T01:43:56;98309.94;;;7.03;61.29
50518;BME280;37075;44.084;2.962;2024-03-17T01:46:41;98307.78;;;7.00;61.52
50518;BME280;37075;44.084;2.962;2024-03-17T01:49:27;98304.56;;;6.98;61.50
50518;BME280;37075;44.084;2.962;2024-03-17T01:52:14;98296.44;;;6.98;61.54
50518;BME280;37075;44.084;2.962;2024-03-17T01:55:02;98292.09;;;6.97;61.60
50518;BME280;37075;44.084;2.962;2024-03-17T01:57:48;98285.06;;;6.96;61.77
50518;BME280;37075;44.084;2.962;2024-03-17T02:00:35;98274.22;;;6.96;61.71
50518;BME280;37075;44.084;2.962;2024-03-17T02:03:21;98263.38;;;6.96;61.85
50518;BME280;37075;44.084;2.962;2024-03-17T02:06:08;98257.97;;;6.96;61.78
50518;BME280;37075;44.084;2.962;2024-03-17T02:08:55;98260.75;;;6.91;62.17
50518;BME280;37075;44.084;2.962;2024-03-17T02:11:42;98258.94;;;6.86;62.79
50518;BME280;37075;44.084;2.962;2024-03-17T02:14:27;98259.84;;;6.82;62.99
50518;BME280;37075;44.084;2.962;2024-03-17T02:17:14;98274.53;;;6.75;64.18
50518;BME280;37075;44.084;2.962;2024-03-17T02:20:00;98270.81;;;6.71;63.84
50518;BME280;37075;44.084;2.962;2024-03-17T02:22:53;98273.31;;;6.68;64.29
50518;BME280;37075;44.084;2.962;2024-03-17T02:25:39;98282.75;;;6.70;63.92
50518;BME280;37075;44.084;2.962;2024-03-17T02:28:26;98285.19;;;6.72;63.95
50518;BME280;37075;44.084;2.962;2024-03-17T02:31:13;98284.38;;;6.71;64.37
50518;BME280;37075;44.084;2.962;2024-03-17T02:34:00;98287.28;;;6.75;64.56
50518;BME280;37075;44.084;2.962;2024-03-17T02:36:45;98291.41;;;6.72;65.26
50518;BME280;37075;44.084;2.962;2024-03-17T02:39:34;98295.13;;;6.76;65.11
50518;BME280;37075;44.084;2.962;2024-03-17T02:42:19;98290.47;;;6.82;65.51
50518;BME280;37075;44.084;2.962;2024-03-17T02:45:06;98282.84;;;6.84;65.62
50518;BME280;37075;44.084;2.962;2024-03-17T02:47:53;98293.28;;;6.91;65.65
50518;BME280;37075;44.084;2.962;2024-03-17T02:50:39;98294.00;;;6.96;65.50
50518;BME280;37075;44.084;2.962;2024-03-17T02:53:26;98293.72;;;6.98;65.91
50518;BME280;37075;44.084;2.962;2024-03-17T02:56:14;98290.94;;;7.03;65.46
50518;BME280;37075;44.084;2.962;2024-03-17T02:59:01;98289.25;;;7.07;65.44
50518;BME280;37075;44.084;2.962;2024-03-17T03:01:47;98281.63;;;7.09;65.39
50518;BME280;37075;44.084;2.962;2024-03-17T03:04:33;98283.44;;;7.14;65.30
50518;BME280;37075;44.084;2.962;2024-03-17T03:07:20;98272.28;;;7.15;65.31
50518;BME280;37075;44.084;2.962;2024-03-17T03:10:07;98273.59;;;7.18;65.54
50518;BME280;37075;44.084;2.962;2024-03-17T03:12:55;98271.09;;;7.21;65.46
50518;BME280;37075;44.084;2.962;2024-03-17T03:15:41;98273.50;;;7.23;65.35
50518;BME280;37075;44.084;2.962;2024-03-17T03:18:28;98278.84;;;7.28;65.29
50518;BME280;37075;44.084;2.962;2024-03-17T03:21:14;98286.41;;;7.31;65.35
50518;BME280;37075;44.084;2.962;2024-03-17T03:24:00;98282.59;;;7.32;65.26
50518;BME280;37075;44.084;2.962;2024-03-17T03:26:46;98284.69;;;7.35;65.31
50518;BME280;37075;44.084;2.962;2024-03-17T03:29:34;98279.28;;;7.35;65.56
50518;BME280;37075;44.084;2.962;2024-03-17T03:32:22;98275.16;;;7.37;65.43
50518;BME280;37075;44.084;2.962;2024-03-17T03:35:08;98264.50;;;7.41;65.45
50518;BME280;37075;44.084;2.962;2024-03-17T03:37:56;98266.41;;;7.40;65.47
50518;BME280;37075;44.084;2.962;2024-03-17T03:40:42;98256.88;;;7.43;65.63
50518;BME280;37075;44.084;2.962;2024-03-17T03:43:29;98251.44;;;7.43;65.64
50518;BME280;37075;44.084;2.962;2024-03-17T03:46:17;98249.03;;;7.41;65.53
50518;BME280;37075;44.084;2.962;2024-03-17T03:49:03;98249.53;;;7.43;65.50
50518;BME280;37075;44.084;2.962;2024-03-17T03:51:50;98242.00;;;7.40;65.44
50518;BME280;37075;44.084;2.962;2024-03-17T03:54:36;98244.69;;;7.40;65.40
50518;BME280;37075;44.084;2.962;2024-03-17T03:57:23;98239.56;;;7.39;65.55
50518;BME280;37075;44.084;2.962;2024-03-17T04:00:13;98234.16;;;7.39;65.44
50518;BME280;37075;44.084;2.962;2024-03-17T04:03:00;98234.94;;;7.39;65.54
50518;BME280;37075;44.084;2.962;2024-03-17T04:05:47;98233.34;;;7.38;65.49
50518;BME280;37075;44.084;2.962;2024-03-17T04:08:34;98231.22;;;7.35;65.78
50518;BME280;37075;44.084;2.962;2024-03-17T04:11:20;98232.84;;;7.36;65.80
50518;BME280;37075;44.084;2.962;2024-03-17T04:14:06;98235.75;;;7.40;65.94
50518;BME280;37075;44.084;2.962;2024-03-17T04:16:52;98240.47;;;7.34;66.69
50518;BME280;37075;44.084;2.962;2024-03-17T04:19:40;98250.31;;;7.30;67.09
50518;BME280;37075;44.084;2.962;2024-03-17T04:22:26;98244.28;;;7.33;67.33
50518;BME280;37075;44.084;2.962;2024-03-17T04:25:12;98244.19;;;7.38;66.86
50518;BME280;37075;44.084;2.962;2024-03-17T04:27:59;98236.88;;;7.39;67.31
50518;BME280;37075;44.084;2.962;2024-03-17T04:30:45;98245.50;;;7.41;67.11
50518;BME280;37075;44.084;2.962;2024-03-17T04:33:32;98253.03;;;7.44;67.16
50518;BME280;37075;44.084;2.962;2024-03-17T04:36:20;98247.00;;;7.47;66.97
50518;BME280;37075;44.084;2.962;2024-03-17T04:39:06;98245.31;;;7.51;66.84
50518;BME280;37075;44.084;2.962;2024-03-17T04:41:53;98243.91;;;7.54;66.81
50518;BME280;37075;44.084;2.962;2024-03-17T04:44:39;98241.41;;;7.57;66.66
50518;BME280;37075;44.084;2.962;2024-03-17T04:47:25;98248.94;;;7.60;66.58
50518;BME280;37075;44.084;2.962;2024-03-17T04:50:11;98245.13;;;7.61;66.52
50518;BME280;37075;44.084;2.962;2024-03-17T04:52:59;98249.16;;;7.64;66.59
50518;BME280;37075;44.084;2.962;2024-03-17T04:55:45;98242.63;;;7.65;66.48
50518;BME280;37075;44.084;2.962;2024-03-17T04:58:32;98257.00;;;7.65;66.45
50518;BME280;37075;44.084;2.962;2024-03-17T05:01:19;98252.38;;;7.66;66.31
50518;BME280;37075;44.084;2.962;2024-03-17T05:04:05;98262.13;;;7.67;66.34
50518;BME280;37075;44.084;2.962;2024-03-17T05:06:51;98265.94;;;7.66;66.55
50518;BME280;37075;44.084;2.962;2024-03-17T05:09:40;98269.47;;;7.66;66.44
50518;BME280;37075;44.084;2.962;2024-03-17T05:12:28;98258.91;;;7.65;66.30
50518;BME280;37075;44.084;2.962;2024-03-17T05:15:14;98276.28;;;7.64;66.30
50518;BME280;37075;44.084;2.962;2024-03-17T05:18:01;98284.75;;;7.62;66.35
50518;BME280;37075;44.084;2.962;2024-03-17T05:20:47;98286.66;;;7.62;66.42
50518;BME280;37075;44.084;2.962;2024-03-17T05:23:35;98285.84;;;7.61;66.35
50518;BME280;37075;44.084;2.962;2024-03-17T05:26:23;98269.56;;;7.61;66.33
50518;BME280;37075;44.084;2.962;2024-03-17T05:29:10;98267.66;;;7.62;66.26
50518;BME280;37075;44.084;2.962;2024-03-17T05:31:56;98270.38;;;7.62;66.25
50518;BME280;37075;44.084;2.962;2024-03-17T05:34:42;98267.94;;;7.60;66.24
50518;BME280;37075;44.084;2.962;2024-03-17T05:37:28;98266.34;;;7.59;66.02
50518;BME280;37075;44.084;2.962;2024-03-17T05:40:15;98267.75;;;7.57;65.97
50518;BME280;37075;44.084;2.962;2024-03-17T05:43:03;98279.97;;;7.54;66.11
50518;BME280;37075;44.084;2.962;2024-03-17T05:45:51;98282.59;;;7.46;66.32
50518;BME280;37075;44.084;2.962;2024-03-17T05:48:39;98294.56;;;7.45;66.36
50518;BME280;37075;44.084;2.962;2024-03-17T05:51:26;98287.53;;;7.43;66.23
50518;BME280;37075;44.084;2.962;2024-03-17T05:54:12;98289.72;;;7.41;66.31
50518;BME280;37075;44.084;2.962;2024-03-17T05:56:59;98294.06;;;7.42;66.45
50518;BME280;37075;44.084;2.962;2024-03-17T05:59:48;98292.16;;;7.43;66.38
50518;BME280;37075;44.084;2.962;2024-03-17T06:02:34;98300.00;;;7.45;66.32
50518;BME280;37075;44.084;2.962;2024-03-17T06:05:20;98293.44;;;7.46;66.42
50518;BME280;37075;44.084;2.962;2024-03-17T06:08:07;98292.34;;;7.47;66.48
50518;BME280;37075;44.084;2.962;2024-03-17T06:10:56;98296.66;;;7.48;66.48
50518;BME280;37075;44.084;2.962;2024-03-17T06:13:44;98292.56;;;7.50;66.48
50518;BME280;37075;44.084;2.962;2024-03-17T06:16:32;98294.97;;;7.52;66.57
50518;BME280;37075;44.084;2.962;2024-03-17T06:19:18;98299.00;;;7.54;66.76
50518;BME280;37075;44.084;2.962;2024-03-17T06:22:05;98291.88;;;7.58;66.67
50518;BME280;37075;44.084;2.962;2024-03-17T06:24:51;98301.34;;;7.61;66.77
50518;BME280;37075;44.084;2.962;2024-03-17T06:27:37;98304.25;;;7.64;66.79
50518;BME280;37075;44.084;2.962;2024-03-17T06:30:23;98300.94;;;7.67;66.98
50518;BME280;37075;44.084;2.962;2024-03-17T06:33:13;98306.06;;;7.69;67.28
50518;BME280;37075;44.084;2.962;2024-03-17T06:36:01;98303.84;;;7.71;67.57
50518;BME280;37075;44.084;2.962;2024-03-17T06:38:49;98314.59;;;7.76;67.54
50518;BME280;37075;44.084;2.962;2024-03-17T06:41:36;98300.66;;;7.83;67.57
50518;BME280;37075;44.084;2.962;2024-03-17T06:44:22;98302.16;;;7.89;67.72
50518;BME280;37075;44.084;2.962;2024-03-17T06:47:12;98290.88;;;7.95;67.74
50518;BME280;37075;44.084;2.962;2024-03-17T06:50:00;98294.00;;;8.02;67.90
50518;BME280;37075;44.084;2.962;2024-03-17T06:52:46;98296.09;;;8.05;68.30
50518;BME280;37075;44.084;2.962;2024-03-17T06:55:32;98295.53;;;8.09;68.21
50518;BME280;37075;44.084;2.962;2024-03-17T06:58:19;98297.53;;;8.17;68.18
50518;BME280;37075;44.084;2.962;2024-03-17T07:01:08;98288.16;;;8.23;68.16
50518;BME280;37075;44.084;2.962;2024-03-17T07:03:55;98292.34;;;8.29;68.31
50518;BME280;37075;44.084;2.962;2024-03-17T07:06:43;98290.38;;;8.34;68.29
50518;BME280;37075;44.084;2.962;2024-03-17T07:09:29;98289.97;;;8.41;68.46
50518;BME280;37075;44.084;2.962;2024-03-17T07:12:16;98290.16;;;8.45;69.13
50518;BME280;37075;44.084;2.962;2024-03-17T07:15:04;98294.38;;;8.51;68.92
50518;BME280;37075;44.084;2.962;2024-03-17T07:17:50;98303.50;;;8.55;69.17
50518;BME280;37075;44.084;2.962;2024-03-17T07:20:37;98293.66;;;8.59;69.44
50518;BME280;37075;44.084;2.962;2024-03-17T07:23:26;98296.75;;;8.66;69.37
50518;BME280;37075;44.084;2.962;2024-03-17T07:26:12;98290.25;;;8.76;68.99
50518;BME280;37075;44.084;2.962;2024-03-17T07:28:59;98283.28;;;8.83;69.05
50518;BME280;37075;44.084;2.962;2024-03-17T07:31:45;98284.47;;;8.91;69.16
50518;BME280;37075;44.084;2.962;2024-03-17T07:34:31;98275.88;;;8.98;68.98
50518;BME280;37075;44.084;2.962;2024-03-17T07:37:18;98284.41;;;9.05;69.12
50518;BME280;37075;44.084;2.962;2024-03-17T07:40:06;98281.75;;;9.13;69.27
50518;BME280;37075;44.084;2.962;2024-03-17T07:42:55;98276.69;;;9.20;69.44
50518;BME280;37075;44.084;2.962;2024-03-17T07:45:41;98278.66;;;9.28;69.79
50518;BME280;37075;44.084;2.962;2024-03-17T07:48:32;98274.97;;;9.33;69.91
50518;BME280;37075;44.084;2.962;2024-03-17T07:51:18;98280.97;;;9.44;69.48
50518;BME280;37075;44.084;2.962;2024-03-17T07:54:04;98282.31;;;9.55;69.75
50518;BME280;37075;44.084;2.962;2024-03-17T07:56:53;98289.75;;;9.63;69.71
50518;BME280;37075;44.084;2.962;2024-03-17T07:59:40;98295.03;;;9.68;69.80
50518;BME280;37075;44.084;2.962;2024-03-17T08:02:28;98293.47;;;9.76;69.58
50518;BME280;37075;44.084;2.962;2024-03-17T08:05:14;98301.66;;;9.84;69.56
50518;BME280;37075;44.084;2.962;2024-03-17T08:08:00;98301.72;;;9.93;69.29
50518;BME280;37075;44.084;2.962;2024-03-17T08:10:46;98302.22;;;10.04;69.28
50518;BME280;37075;44.084;2.962;2024-03-17T08:13:35;98304.97;;;10.12;69.21
50518;BME280;37075;44.084;2.962;2024-03-17T08:16:22;98307.78;;;10.21;69.20
50518;BME280;37075;44.084;2.962;2024-03-17T08:19:08;98305.88;;;10.30;69.03
50518;BME280;37075;44.084;2.962;2024-03-17T08:21:54;98302.53;;;10.42;68.84
50518;BME280;37075;44.084;2.962;2024-03-17T08:24:40;98302.38;;;10.56;68.64
50518;BME280;37075;44.084;2.962;2024-03-17T08:27:27;98299.84;;;10.68;68.75
50518;BME280;37075;44.084;2.962;2024-03-17T08:30:14;98294.22;;;10.81;68.46
50518;BME280;37075;44.084;2.962;2024-03-17T08:33:01;98294.09;;;10.95;68.65
50518;BME280;37075;44.084;2.962;2024-03-17T08:35:54;98284.09;;;11.08;68.32
50518;BME280;37075;44.084;2.962;2024-03-17T08:38:41;98287.78;;;11.21;68.12
50518;BME280;37075;44.084;2.962;2024-03-17T08:41:27;98289.06;;;11.32;67.96
50518;BME280;37075;44.084;2.962;2024-03-17T08:44:15;98295.75;;;11.43;67.78
50518;BME280;37075;44.084;2.962;2024-03-17T08:47:03;98291.09;;;11.52;67.51
50518;BME280;37075;44.084;2.962;2024-03-17T08:49:50;98287.22;;;11.62;67.23
50518;BME280;37075;44.084;2.962;2024-03-17T08:52:36;98295.53;;;11.65;67.07
50518;BME280;37075;44.084;2.962;2024-03-17T08:55:22;98294.25;;;11.71;66.75
50518;BME280;37075;44.084;2.962;2024-03-17T08:58:09;98290.06;;;11.74;66.28
50518;BME280;37075;44.084;2.962;2024-03-17T09:00:56;98288.63;;;11.77;66.03
50518;BME280;37075;44.084;2.962;2024-03-17T09:03:44;98288.00;;;11.80;66.05
50518;BME280;37075;44.084;2.962;2024-03-17T09:06:31;98290.72;;;11.80;65.86
50518;BME280;37075;44.084;2.962;2024-03-17T09:09:17;98288.13;;;11.83;65.73
50518;BME280;37075;44.084;2.962;2024-03-17T09:12:04;98285.53;;;11.87;65.80
50518;BME280;37075;44.084;2.962;2024-03-17T09:14:50;98282.44;;;11.97;65.68
50518;BME280;37075;44.084;2.962;2024-03-17T09:17:36;98279.34;;;12.07;65.56
50518;BME280;37075;44.084;2.962;2024-03-17T09:20:25;98277.50;;;12.20;65.49
50518;BME280;37075;44.084;2.962;2024-03-17T09:23:11;98272.78;;;12.29;64.82
50518;BME280;37075;44.084;2.962;2024-03-17T09:26:00;98282.41;;;12.35;64.75
50518;BME280;37075;44.084;2.962;2024-03-17T09:28:46;98287.69;;;12.40;64.57
50518;BME280;37075;44.084;2.962;2024-03-17T09:31:33;98277.19;;;12.42;64.28
50518;BME280;37075;44.084;2.962;2024-03-17T09:34:20;98283.28;;;12.48;64.09
50518;BME280;37075;44.084;2.962;2024-03-17T09:37:08;98283.09;;;12.53;64.05
50518;BME280;37075;44.084;2.962;2024-03-17T09:39:54;98271.28;;;12.61;64.00
50518;BME280;37075;44.084;2.962;2024-03-17T09:42:42;98269.63;;;12.69;63.72
50518;BME280;37075;44.084;2.962;2024-03-17T09:45:28;98264.44;;;12.76;63.70
50518;BME280;37075;44.084;2.962;2024-03-17T09:48:18;98257.28;;;12.83;63.46
50518;BME280;37075;44.084;2.962;2024-03-17T09:51:04;98265.06;;;12.93;63.61
50518;BME280;37075;44.084;2.962;2024-03-17T09:53:52;98265.00;;;13.02;63.48
50518;BME280;37075;44.084;2.962;2024-03-17T09:56:38;98268.47;;;13.11;63.39
50518;BME280;37075;44.084;2.962;2024-03-17T09:59:24;98262.91;;;13.20;63.27
50518;BME280;37075;44.084;2.962;2024-03-17T10:02:16;98253.03;;;13.27;62.92
50518;BME280;37075;44.084;2.962;2024-03-17T10:05:04;98251.00;;;13.37;62.88
50518;BME280;37075;44.084;2.962;2024-03-17T10:07:51;98256.72;;;13.44;63.01
50518;BME280;37075;44.084;2.962;2024-03-17T10:10:39;98252.94;;;13.48;62.54
50518;BME280;37075;44.084;2.962;2024-03-17T10:13:26;98241.22;;;13.60;62.45
50518;BME280;37075;44.084;2.962;2024-03-17T10:16:22;98241.22;;;13.72;62.43
50518;BME280;37075;44.084;2.962;2024-03-17T10:19:10;98246.63;;;13.81;62.42
50518;BME280;37075;44.084;2.962;2024-03-17T10:21:59;98238.28;;;13.89;62.16
50518;BME280;37075;44.084;2.962;2024-03-17T10:24:45;98234.03;;;14.04;61.38
50518;BME280;37075;44.084;2.962;2024-03-17T10:27:46;98229.94;;;14.10;61.36
50518;BME280;37075;44.084;2.962;2024-03-17T10:30:32;98225.13;;;14.19;61.45
50518;BME280;37075;44.084;2.962;2024-03-17T10:33:22;98223.84;;;14.29;61.40
50518;BME280;37075;44.084;2.962;2024-03-17T10:36:17;98219.84;;;14.39;60.88
50518;BME280;37075;44.084;2.962;2024-03-17T10:39:03;98216.53;;;14.45;60.05
50518;BME280;37075;44.084;2.962;2024-03-17T10:41:49;98216.38;;;14.54;59.76
50518;BME280;37075;44.084;2.962;2024-03-17T10:44:38;98206.09;;;14.63;59.35
50518;BME280;37075;44.084;2.962;2024-03-17T10:47:25;98204.44;;;14.74;59.48
50518;BME280;37075;44.084;2.962;2024-03-17T10:50:17;98206.34;;;14.86;59.30
50518;BME280;37075;44.084;2.962;2024-03-17T10:53:04;98213.72;;;14.98;58.98
50518;BME280;37075;44.084;2.962;2024-03-17T10:56:02;98208.66;;;15.12;58.58
50518;BME280;37075;44.084;2.962;2024-03-17T10:58:53;98208.56;;;15.24;57.78
50518;BME280;37075;44.084;2.962;2024-03-17T11:01:44;98205.75;;;15.36;57.57
50518;BME280;37075;44.084;2.962;2024-03-17T11:04:31;98204.88;;;15.48;57.36
50518;BME280;37075;44.084;2.962;2024-03-17T11:07:19;98203.31;;;15.63;57.63
50518;BME280;37075;44.084;2.962;2024-03-17T11:10:07;98207.22;;;15.78;57.49
50518;BME280;37075;44.084;2.962;2024-03-17T11:12:57;98206.78;;;15.91;57.21
50518;BME280;37075;44.084;2.962;2024-03-17T11:15:44;98200.72;;;16.01;56.75
50518;BME280;37075;44.084;2.962;2024-03-17T11:18:41;98192.00;;;16.15;56.85
50518;BME280;37075;44.084;2.962;2024-03-17T11:21:27;98191.06;;;16.27;56.42
50518;BME280;37075;44.084;2.962;2024-03-17T11:24:20;98193.69;;;16.39;56.45
50518;BME280;37075;44.084;2.962;2024-03-17T11:27:39;98185.03;;;16.56;56.59
50518;BME280;37075;44.084;2.962;2024-03-17T11:30:48;98181.16;;;16.77;55.86
50518;BME280;37075;44.084;2.962;2024-03-17T11:33:49;98179.13;;;16.93;56.22
50518;BME280;37075;44.084;2.962;2024-03-17T11:36:37;98174.16;;;17.02;55.33
50518;BME280;37075;44.084;2.962;2024-03-17T11:39:46;98168.56;;;17.18;55.00
50518;BME280;37075;44.084;2.962;2024-03-17T11:42:34;98165.19;;;17.28;54.22
50518;BME280;37075;44.084;2.962;2024-03-17T11:45:21;98165.09;;;17.44;53.84
50518;BME280;37075;44.084;2.962;2024-03-17T11:48:11;98147.28;;;17.64;52.81
50518;BME280;37075;44.084;2.962;2024-03-17T11:51:01;98149.25;;;17.86;49.68
50518;BME280;37075;44.084;2.962;2024-03-17T11:53:57;98149.28;;;18.16;49.05
50518;BME280;37075;44.084;2.962;2024-03-17T11:56:43;98150.09;;;18.47;47.53
50518;BME280;37075;44.084;2.962;2024-03-17T11:59:30;98146.63;;;18.84;47.83
50518;BME280;37075;44.084;2.962;2024-03-17T12:02:18;98154.50;;;19.19;46.11
50518;BME280;37075;44.084;2.962;2024-03-17T12:05:04;98144.13;;;19.49;46.15
50518;BME280;37075;44.084;2.962;2024-03-17T12:07:53;98152.28;;;19.76;43.30
50518;BME280;37075;44.084;2.962;2024-03-17T12:10:47;98131.16;;;20.05;40.23
50518;BME280;37075;44.084;2.962;2024-03-17T12:13:33;98130.47;;;20.29;41.37
50518;BME280;37075;44.084;2.962;2024-03-17T12:16:19;98130.63;;;20.54;41.49
50518;BME280;37075;44.084;2.962;2024-03-17T12:19:06;98122.06;;;20.84;39.61
50518;BME280;37075;44.084;2.962;2024-03-17T12:21:52;98126.88;;;21.08;40.53
50518;BME280;37075;44.084;2.962;2024-03-17T12:24:40;98115.44;;;21.35;38.37
50518;BME280;37075;44.084;2.962;2024-03-17T12:27:28;98109.50;;;21.50;36.93
50518;BME280;37075;44.084;2.962;2024-03-17T12:30:14;98108.72;;;21.68;37.94
50518;BME280;37075;44.084;2.962;2024-03-17T12:33:00;98105.53;;;21.87;37.80
50518;BME280;37075;44.084;2.962;2024-03-17T12:35:47;98088.81;;;22.08;38.65
50518;BME280;37075;44.084;2.962;2024-03-17T12:38:37;98082.81;;;22.31;38.47
50518;BME280;37075;44.084;2.962;2024-03-17T12:41:23;98069.22;;;22.51;37.40
50518;BME280;37075;44.084;2.962;2024-03-17T12:44:21;98069.94;;;22.69;35.55
50518;BME280;37075;44.084;2.962;2024-03-17T12:47:08;98068.31;;;22.75;36.47
50518;BME280;37075;44.084;2.962;2024-03-17T12:49:59;98059.16;;;22.82;35.22
50518;BME280;37075;44.084;2.962;2024-03-17T12:52:52;98075.06;;;22.82;33.88
50518;BME280;37075;44.084;2.962;2024-03-17T12:55:39;98063.94;;;22.78;33.97
50518;BME280;37075;44.084;2.962;2024-03-17T12:58:44;98061.16;;;22.74;33.64
50518;BME280;37075;44.084;2.962;2024-03-17T13:01:44;98050.03;;;22.74;34.08
50518;BME280;37075;44.084;2.962;2024-03-17T13:04:30;98038.50;;;22.80;34.15
50518;BME280;37075;44.084;2.962;2024-03-17T13:07:17;98029.78;;;22.81;34.08
50518;BME280;37075;44.084;2.962;2024-03-17T13:10:05;98031.69;;;22.95;33.75
50518;BME280;37075;44.084;2.962;2024-03-17T13:12:59;98027.13;;;23.19;34.78
50518;BME280;37075;44.084;2.962;2024-03-17T13:15:47;98030.03;;;23.49;33.77
50518;BME280;37075;44.084;2.962;2024-03-17T13:18:34;98014.78;;;23.64;33.33
50518;BME280;37075;44.084;2.962;2024-03-17T13:21:20;98013.50;;;23.76;33.34
50518;BME280;37075;44.084;2.962;2024-03-17T13:24:07;97995.53;;;23.81;32.53
50518;BME280;37075;44.084;2.962;2024-03-17T13:26:54;98010.22;;;23.85;32.83
50518;BME280;37075;44.084;2.962;2024-03-17T13:29:47;98004.31;;;23.79;32.57
50518;BME280;37075;44.084;2.962;2024-03-17T13:32:35;97992.75;;;23.81;32.06
50518;BME280;37075;44.084;2.962;2024-03-17T13:35:22;98002.59;;;23.89;32.57
50518;BME280;37075;44.084;2.962;2024-03-17T13:38:09;98008.81;;;24.04;32.01
50518;BME280;37075;44.084;2.962;2024-03-17T13:40:56;98014.66;;;24.13;31.20
50518;BME280;37075;44.084;2.962;2024-03-17T13:43:42;97999.63;;;24.07;31.27
50518;BME280;37075;44.084;2.962;2024-03-17T13:46:29;98008.41;;;24.05;31.58
50518;BME280;37075;44.084;2.962;2024-03-17T13:49:16;97995.25;;;24.06;31.68
50518;BME280;37075;44.084;2.962;2024-03-17T13:52:03;97995.13;;;24.16;30.76
50518;BME280;37075;44.084;2.962;2024-03-17T13:54:49;97971.53;;;24.28;31.73
50518;BME280;37075;44.084;2.962;2024-03-17T13:57:36;97980.56;;;24.36;31.97
50518;BME280;37075;44.084;2.962;2024-03-17T14:00:22;97976.19;;;24.35;31.32
50518;BME280;37075;44.084;2.962;2024-03-17T14:03:09;97974.31;;;24.28;31.34
50518;BME280;37075;44.084;2.962;2024-03-17T14:05:56;97968.00;;;24.20;31.17
50518;BME280;37075;44.084;2.962;2024-03-17T14:08:43;97964.94;;;24.11;30.67
50518;BME280;37075;44.084;2.962;2024-03-17T14:11:29;97961.44;;;24.04;31.23
50518;BME280;37075;44.084;2.962;2024-03-17T14:14:16;97956.81;;;23.90;29.91
50518;BME280;37075;44.084;2.962;2024-03-17T14:17:02;97966.00;;;23.87;31.56
50518;BME280;37075;44.084;2.962;2024-03-17T14:19:48;97976.03;;;23.81;30.73
50518;BME280;37075;44.084;2.962;2024-03-17T14:22:37;97980.31;;;23.89;32.03
50518;BME280;37075;44.084;2.962;2024-03-17T14:25:23;97977.88;;;23.94;31.54
50518;BME280;37075;44.084;2.962;2024-03-17T14:28:10;97965.28;;;24.13;31.49
50518;BME280;37075;44.084;2.962;2024-03-17T14:30:57;97972.38;;;24.52;31.26
50518;BME280;37075;44.084;2.962;2024-03-17T14:33:43;97972.59;;;24.65;30.78
50518;BME280;37075;44.084;2.962;2024-03-17T14:36:31;97963.91;;;24.86;30.85
50518;BME280;37075;44.084;2.962;2024-03-17T14:39:19;97955.16;;;25.34;30.87
50518;BME280;37075;44.084;2.962;2024-03-17T14:42:05;97952.16;;;25.68;29.99
50518;BME280;37075;44.084;2.962;2024-03-17T14:44:51;97947.28;;;25.92;29.98
50518;BME280;37075;44.084;2.962;2024-03-17T14:47:38;97950.53;;;26.27;30.17
50518;BME280;37075;44.084;2.962;2024-03-17T14:50:24;97963.31;;;26.28;28.64
50518;BME280;37075;44.084;2.962;2024-03-17T14:53:10;97964.75;;;26.16;28.25